sensor_id;sensor_type;location;lat;lon;timestamp;P1;durP1;ratioP1;P2;durP2;ratioP2
61336;SDS011;47212;41.326;2.104;2022-08-14T00:03:02;11.10;;;6.95;;
61336;SDS011;47212;41.326;2.104;2022-08-14T00:08:05;12.93;;;6.43;;
61336;SDS011;47212;41.326;2.104;2022-08-14T00:13:15;6.93;;;5.63;;
61336;SDS011;47212;41.326;2.104;2022-08-14T00:18:25;8.40;;;5.88;;
61336;SDS011;47212;41.326;2.104;2022-08-14T00:23:48;8.55;;;5.43;;
61336;SDS011;47212;41.326;2.104;2022-08-14T00:28:54;8.10;;;5.63;;
61336;SDS011;47212;41.326;2.104;2022-08-14T00:33:57;10.35;;;6.57;;
61336;SDS011;47212;41.326;2.104;2022-08-14T00:39:19;8.20;;;5.82;;
61336;SDS011;47212;41.326;2.104;2022-08-14T00:44:21;13.88;;;6.65;;
61336;SDS011;47212;41.326;2.104;2022-08-14T00:49:36;9.40;;;6.53;;
61336;SDS011;47212;41.326;2.104;2022-08-14T00:54:44;9.38;;;5.63;;
61336;SDS011;47212;41.326;2.104;2022-08-14T00:59:48;10.90;;;5.97;;
61336;SDS011;47212;41.326;2.104;2022-08-14T01:05:14;8.10;;;6.30;;
61336;SDS011;47212;41.326;2.104;2022-08-14T01:10:52;7.75;;;4.60;;
61336;SDS011;47212;41.326;2.104;2022-08-14T01:15:56;7.07;;;5.35;;
61336;SDS011;47212;41.326;2.104;2022-08-14T01:21:11;14.40;;;7.30;;
61336;SDS011;47212;41.326;2.104;2022-08-14T01:26:17;6.30;;;5.68;;
61336;SDS011;47212;41.326;2.104;2022-08-14T01:31:40;9.45;;;5.68;;
61336;SDS011;47212;41.326;2.104;2022-08-14T01:37:04;9.05;;;6.40;;
61336;SDS011;47212;41.326;2.104;2022-08-14T01:42:07;10.85;;;7.20;;
61336;SDS011;47212;41.326;2.104;2022-08-14T01:47:35;7.53;;;5.55;;
61336;SDS011;47212;41.326;2.104;2022-08-14T01:52:37;8.98;;;6.50;;
61336;SDS011;47212;41.326;2.104;2022-08-14T01:58:00;11.55;;;7.03;;
61336;SDS011;47212;41.326;2.104;2022-08-14T02:03:23;7.53;;;6.45;;
61336;SDS011;47212;41.326;2.104;2022-08-14T02:08:31;10.43;;;6.53;;
61336;SDS011;47212;41.326;2.104;2022-08-14T02:13:36;8.52;;;6.90;;
61336;SDS011;47212;41.326;2.104;2022-08-14T02:18:43;10.77;;;7.00;;
61336;SDS011;47212;41.326;2.104;2022-08-14T02:23:46;10.75;;;7.28;;
61336;SDS011;47212;41.326;2.104;2022-08-14T02:28:55;12.82;;;7.55;;
61336;SDS011;47212;41.326;2.104;2022-08-14T02:34:11;13.85;;;7.50;;
61336;SDS011;47212;41.326;2.104;2022-08-14T02:39:26;9.93;;;7.43;;
61336;SDS011;47212;41.326;2.104;2022-08-14T02:44:30;10.27;;;6.78;;
61336;SDS011;47212;41.326;2.104;2022-08-14T02:49:47;10.07;;;6.88;;
61336;SDS011;47212;41.326;2.104;2022-08-14T02:54:55;8.65;;;6.20;;
61336;SDS011;47212;41.326;2.104;2022-08-14T03:06:35;6.90;;;6.18;;
61336;SDS011;47212;41.326;2.104;2022-08-14T03:12:05;13.45;;;7.50;;
61336;SDS011;47212;41.326;2.104;2022-08-14T03:17:34;12.90;;;7.65;;
61336;SDS011;47212;41.326;2.104;2022-08-14T03:22:58;9.02;;;6.93;;
61336;SDS011;47212;41.326;2.104;2022-08-14T03:28:12;11.35;;;7.28;;
61336;SDS011;47212;41.326;2.104;2022-08-14T03:33:34;11.15;;;7.57;;
61336;SDS011;47212;41.326;2.104;2022-08-14T03:38:42;13.25;;;7.22;;
61336;SDS011;47212;41.326;2.104;2022-08-14T03:44:05;12.63;;;6.57;;
61336;SDS011;47212;41.326;2.104;2022-08-14T03:49:54;12.35;;;7.95;;
61336;SDS011;47212;41.326;2.104;2022-08-14T03:54:59;10.18;;;7.47;;
61336;SDS011;47212;41.326;2.104;2022-08-14T04:00:05;10.68;;;6.57;;
61336;SDS011;47212;41.326;2.104;2022-08-14T04:05:39;9.52;;;6.53;;
61336;SDS011;47212;41.326;2.104;2022-08-14T04:10:58;12.35;;;7.05;;
61336;SDS011;47212;41.326;2.104;2022-08-14T04:16:03;9.10;;;6.43;;
61336;SDS011;47212;41.326;2.104;2022-08-14T04:21:14;12.30;;;6.85;;
61336;SDS011;47212;41.326;2.104;2022-08-14T04:26:19;12.10;;;6.57;;
61336;SDS011;47212;41.326;2.104;2022-08-14T04:31:43;9.35;;;5.80;;
61336;SDS011;47212;41.326;2.104;2022-08-14T04:37:08;8.30;;;5.60;;
61336;SDS011;47212;41.326;2.104;2022-08-14T04:42:33;11.55;;;6.85;;
61336;SDS011;47212;41.326;2.104;2022-08-14T04:47:59;10.70;;;5.63;;
61336;SDS011;47212;41.326;2.104;2022-08-14T04:53:43;7.75;;;5.72;;
61336;SDS011;47212;41.326;2.104;2022-08-14T04:58:49;12.55;;;6.13;;
61336;SDS011;47212;41.326;2.104;2022-08-14T05:04:03;9.82;;;5.35;;
61336;SDS011;47212;41.326;2.104;2022-08-14T05:09:07;8.20;;;5.40;;
61336;SDS011;47212;41.326;2.104;2022-08-14T05:14:14;8.60;;;5.30;;
61336;SDS011;47212;41.326;2.104;2022-08-14T05:19:40;7.80;;;5.45;;
61336;SDS011;47212;41.326;2.104;2022-08-14T05:25:03;11.65;;;5.43;;
61336;SDS011;47212;41.326;2.104;2022-08-14T05:30:13;6.68;;;4.15;;
61336;SDS011;47212;41.326;2.104;2022-08-14T05:35:17;8.40;;;4.53;;
61336;SDS011;47212;41.326;2.104;2022-08-14T05:40:29;10.38;;;4.10;;
61336;SDS011;47212;41.326;2.104;2022-08-14T05:45:34;5.93;;;3.45;;
61336;SDS011;47212;41.326;2.104;2022-08-14T05:50:37;5.55;;;2.50;;
61336;SDS011;47212;41.326;2.104;2022-08-14T05:55:42;7.20;;;2.72;;
61336;SDS011;47212;41.326;2.104;2022-08-14T06:00:48;5.00;;;2.35;;
61336;SDS011;47212;41.326;2.104;2022-08-14T06:05:54;6.53;;;2.45;;
61336;SDS011;47212;41.326;2.104;2022-08-14T06:10:59;10.75;;;3.13;;
61336;SDS011;47212;41.326;2.104;2022-08-14T06:16:04;6.97;;;2.42;;
61336;SDS011;47212;41.326;2.104;2022-08-14T06:21:11;5.05;;;2.38;;
61336;SDS011;47212;41.326;2.104;2022-08-14T06:26:14;7.65;;;2.78;;
61336;SDS011;47212;41.326;2.104;2022-08-14T06:31:16;3.47;;;2.10;;
61336;SDS011;47212;41.326;2.104;2022-08-14T06:36:20;4.38;;;1.98;;
61336;SDS011;47212;41.326;2.104;2022-08-14T06:41:24;4.90;;;2.20;;
61336;SDS011;47212;41.326;2.104;2022-08-14T06:46:46;6.05;;;2.25;;
61336;SDS011;47212;41.326;2.104;2022-08-14T06:51:55;7.55;;;2.30;;
61336;SDS011;47212;41.326;2.104;2022-08-14T06:57:00;10.85;;;2.75;;
61336;SDS011;47212;41.326;2.104;2022-08-14T07:02:04;8.30;;;2.72;;
61336;SDS011;47212;41.326;2.104;2022-08-14T07:07:38;6.63;;;2.50;;
61336;SDS011;47212;41.326;2.104;2022-08-14T07:12:43;5.53;;;2.30;;
61336;SDS011;47212;41.326;2.104;2022-08-14T07:18:05;5.85;;;2.55;;
61336;SDS011;47212;41.326;2.104;2022-08-14T07:23:12;8.40;;;3.50;;
61336;SDS011;47212;41.326;2.104;2022-08-14T07:28:28;4.78;;;2.05;;
61336;SDS011;47212;41.326;2.104;2022-08-14T07:33:45;7.73;;;2.87;;
61336;SDS011;47212;41.326;2.104;2022-08-14T07:38:51;8.60;;;3.28;;
61336;SDS011;47212;41.326;2.104;2022-08-14T07:43:56;12.18;;;3.45;;
61336;SDS011;47212;41.326;2.104;2022-08-14T07:49:20;10.32;;;3.20;;
61336;SDS011;47212;41.326;2.104;2022-08-14T07:54:27;10.98;;;3.30;;
61336;SDS011;47212;41.326;2.104;2022-08-14T07:59:38;13.38;;;4.20;;
61336;SDS011;47212;41.326;2.104;2022-08-14T08:04:56;11.05;;;2.90;;
61336;SDS011;47212;41.326;2.104;2022-08-14T08:10:21;10.88;;;3.22;;
61336;SDS011;47212;41.326;2.104;2022-08-14T08:15:58;7.90;;;3.30;;
61336;SDS011;47212;41.326;2.104;2022-08-14T08:21:02;10.23;;;3.33;;
61336;SDS011;47212;41.326;2.104;2022-08-14T08:26:06;11.80;;;3.15;;
61336;SDS011;47212;41.326;2.104;2022-08-14T08:31:09;8.10;;;2.88;;
61336;SDS011;47212;41.326;2.104;2022-08-14T08:36:13;6.32;;;2.70;;
61336;SDS011;47212;41.326;2.104;2022-08-14T08:41:22;10.48;;;3.63;;
61336;SDS011;47212;41.326;2.104;2022-08-14T08:46:25;10.43;;;3.40;;
61336;SDS011;47212;41.326;2.104;2022-08-14T08:51:33;13.23;;;3.80;;
61336;SDS011;47212;41.326;2.104;2022-08-14T08:56:44;10.65;;;3.47;;
61336;SDS011;47212;41.326;2.104;2022-08-14T09:02:00;9.80;;;3.72;;
61336;SDS011;47212;41.326;2.104;2022-08-14T09:07:07;7.90;;;4.00;;
61336;SDS011;47212;41.326;2.104;2022-08-14T09:12:11;10.02;;;4.80;;
61336;SDS011;47212;41.326;2.104;2022-08-14T09:17:16;13.15;;;8.23;;
61336;SDS011;47212;41.326;2.104;2022-08-14T09:22:20;17.00;;;9.27;;
61336;SDS011;47212;41.326;2.104;2022-08-14T09:27:40;14.57;;;9.23;;
61336;SDS011;47212;41.326;2.104;2022-08-14T09:33:06;16.67;;;10.45;;
61336;SDS011;47212;41.326;2.104;2022-08-14T09:38:31;11.68;;;8.07;;
61336;SDS011;47212;41.326;2.104;2022-08-14T09:44:17;12.60;;;6.90;;
61336;SDS011;47212;41.326;2.104;2022-08-14T09:49:36;13.85;;;6.75;;
61336;SDS011;47212;41.326;2.104;2022-08-14T09:54:42;8.35;;;5.63;;
61336;SDS011;47212;41.326;2.104;2022-08-14T09:59:49;9.57;;;5.68;;
61336;SDS011;47212;41.326;2.104;2022-08-14T10:05:05;15.63;;;7.03;;
61336;SDS011;47212;41.326;2.104;2022-08-14T10:10:13;12.88;;;6.25;;
61336;SDS011;47212;41.326;2.104;2022-08-14T10:15:29;13.10;;;7.18;;
61336;SDS011;47212;41.326;2.104;2022-08-14T10:20:34;18.75;;;8.35;;
61336;SDS011;47212;41.326;2.104;2022-08-14T10:25:55;13.13;;;7.13;;
61336;SDS011;47212;41.326;2.104;2022-08-14T10:31:23;15.27;;;7.85;;
61336;SDS011;47212;41.326;2.104;2022-08-14T10:36:44;15.73;;;8.07;;
61336;SDS011;47212;41.326;2.104;2022-08-14T10:42:06;15.85;;;6.78;;
61336;SDS011;47212;41.326;2.104;2022-08-14T10:47:18;15.23;;;5.97;;
61336;SDS011;47212;41.326;2.104;2022-08-14T10:52:42;16.25;;;5.45;;
61336;SDS011;47212;41.326;2.104;2022-08-14T10:57:53;15.77;;;6.10;;
61336;SDS011;47212;41.326;2.104;2022-08-14T11:02:59;17.52;;;5.95;;
61336;SDS011;47212;41.326;2.104;2022-08-14T11:08:14;17.05;;;6.45;;
61336;SDS011;47212;41.326;2.104;2022-08-14T11:18:32;16.60;;;6.38;;
61336;SDS011;47212;41.326;2.104;2022-08-14T11:24:01;18.92;;;6.72;;
61336;SDS011;47212;41.326;2.104;2022-08-14T11:29:28;15.25;;;5.90;;
61336;SDS011;47212;41.326;2.104;2022-08-14T11:34:36;14.88;;;6.50;;
61336;SDS011;47212;41.326;2.104;2022-08-14T11:39:38;18.15;;;7.80;;
61336;SDS011;47212;41.326;2.104;2022-08-14T11:44:56;20.10;;;7.57;;
61336;SDS011;47212;41.326;2.104;2022-08-14T11:50:17;18.92;;;8.40;;
61336;SDS011;47212;41.326;2.104;2022-08-14T11:55:37;15.70;;;7.47;;
61336;SDS011;47212;41.326;2.104;2022-08-14T12:00:48;19.50;;;7.68;;
61336;SDS011;47212;41.326;2.104;2022-08-14T12:06:18;21.77;;;8.30;;
61336;SDS011;47212;41.326;2.104;2022-08-14T12:11:46;16.70;;;7.72;;
61336;SDS011;47212;41.326;2.104;2022-08-14T12:17:06;19.98;;;9.55;;
61336;SDS011;47212;41.326;2.104;2022-08-14T12:22:15;20.05;;;9.27;;
61336;SDS011;47212;41.326;2.104;2022-08-14T12:27:47;19.27;;;9.82;;
61336;SDS011;47212;41.326;2.104;2022-08-14T12:33:00;15.73;;;9.10;;
61336;SDS011;47212;41.326;2.104;2022-08-14T12:38:10;18.40;;;8.73;;
61336;SDS011;47212;41.326;2.104;2022-08-14T12:43:21;17.55;;;9.50;;
61336;SDS011;47212;41.326;2.104;2022-08-14T12:48:32;17.83;;;8.63;;
61336;SDS011;47212;41.326;2.104;2022-08-14T12:53:52;20.15;;;9.38;;
61336;SDS011;47212;41.326;2.104;2022-08-14T12:59:03;19.25;;;9.02;;
61336;SDS011;47212;41.326;2.104;2022-08-14T13:09:15;16.57;;;7.83;;
61336;SDS011;47212;41.326;2.104;2022-08-14T13:14:25;20.88;;;8.68;;
61336;SDS011;47212;41.326;2.104;2022-08-14T13:19:40;26.70;;;9.50;;
61336;SDS011;47212;41.326;2.104;2022-08-14T13:24:46;21.55;;;7.95;;
61336;SDS011;47212;41.326;2.104;2022-08-14T13:29:50;18.98;;;6.93;;
61336;SDS011;47212;41.326;2.104;2022-08-14T13:34:55;17.88;;;6.95;;
61336;SDS011;47212;41.326;2.104;2022-08-14T13:40:02;16.05;;;5.78;;
61336;SDS011;47212;41.326;2.104;2022-08-14T13:45:08;18.83;;;5.93;;
61336;SDS011;47212;41.326;2.104;2022-08-14T13:50:13;15.70;;;5.80;;
61336;SDS011;47212;41.326;2.104;2022-08-14T13:55:22;16.08;;;5.55;;
61336;SDS011;47212;41.326;2.104;2022-08-14T14:06:01;15.85;;;5.00;;
61336;SDS011;47212;41.326;2.104;2022-08-14T14:11:05;21.25;;;5.28;;
61336;SDS011;47212;41.326;2.104;2022-08-14T14:16:08;17.17;;;4.95;;
61336;SDS011;47212;41.326;2.104;2022-08-14T14:21:22;12.38;;;4.63;;
61336;SDS011;47212;41.326;2.104;2022-08-14T14:26:29;14.77;;;4.40;;
61336;SDS011;47212;41.326;2.104;2022-08-14T14:31:37;13.55;;;4.32;;
61336;SDS011;47212;41.326;2.104;2022-08-14T14:36:42;16.73;;;4.63;;
61336;SDS011;47212;41.326;2.104;2022-08-14T14:41:55;11.98;;;3.90;;
61336;SDS011;47212;41.326;2.104;2022-08-14T14:47:08;17.48;;;4.53;;
61336;SDS011;47212;41.326;2.104;2022-08-14T14:52:23;16.33;;;4.07;;
61336;SDS011;47212;41.326;2.104;2022-08-14T14:57:34;14.30;;;4.63;;
61336;SDS011;47212;41.326;2.104;2022-08-14T15:02:37;11.10;;;3.70;;
61336;SDS011;47212;41.326;2.104;2022-08-14T15:07:43;15.45;;;5.03;;
61336;SDS011;47212;41.326;2.104;2022-08-14T15:12:56;14.65;;;5.05;;
61336;SDS011;47212;41.326;2.104;2022-08-14T15:18:01;12.02;;;4.00;;
61336;SDS011;47212;41.326;2.104;2022-08-14T15:23:06;11.63;;;3.90;;
61336;SDS011;47212;41.326;2.104;2022-08-14T15:28:13;17.08;;;5.15;;
61336;SDS011;47212;41.326;2.104;2022-08-14T15:33:22;13.65;;;3.88;;
61336;SDS011;47212;41.326;2.104;2022-08-14T15:39:05;14.45;;;4.03;;
61336;SDS011;47212;41.326;2.104;2022-08-14T15:44:08;14.90;;;3.63;;
61336;SDS011;47212;41.326;2.104;2022-08-14T15:49:28;11.87;;;4.03;;
61336;SDS011;47212;41.326;2.104;2022-08-14T15:54:36;19.35;;;4.43;;
61336;SDS011;47212;41.326;2.104;2022-08-14T15:59:39;11.65;;;3.30;;
61336;SDS011;47212;41.326;2.104;2022-08-14T16:05:31;19.80;;;4.07;;
61336;SDS011;47212;41.326;2.104;2022-08-14T16:10:40;17.77;;;4.68;;
61336;SDS011;47212;41.326;2.104;2022-08-14T16:15:50;11.90;;;4.05;;
61336;SDS011;47212;41.326;2.104;2022-08-14T16:20:55;15.20;;;5.30;;
61336;SDS011;47212;41.326;2.104;2022-08-14T16:25:59;13.07;;;5.38;;
61336;SDS011;47212;41.326;2.104;2022-08-14T16:31:04;19.58;;;5.53;;
61336;SDS011;47212;41.326;2.104;2022-08-14T16:36:12;16.60;;;5.65;;
61336;SDS011;47212;41.326;2.104;2022-08-14T16:41:33;10.63;;;5.38;;
61336;SDS011;47212;41.326;2.104;2022-08-14T16:46:49;9.13;;;5.05;;
61336;SDS011;47212;41.326;2.104;2022-08-14T16:52:04;11.98;;;5.13;;
61336;SDS011;47212;41.326;2.104;2022-08-14T16:57:27;11.82;;;5.53;;
61336;SDS011;47212;41.326;2.104;2022-08-14T17:02:38;13.93;;;6.00;;
61336;SDS011;47212;41.326;2.104;2022-08-14T17:13:32;16.83;;;5.82;;
61336;SDS011;47212;41.326;2.104;2022-08-14T17:18:56;16.05;;;5.38;;
61336;SDS011;47212;41.326;2.104;2022-08-14T17:24:14;12.90;;;5.70;;
61336;SDS011;47212;41.326;2.104;2022-08-14T17:29:44;14.18;;;5.68;;
61336;SDS011;47212;41.326;2.104;2022-08-14T17:35:12;11.55;;;4.85;;
61336;SDS011;47212;41.326;2.104;2022-08-14T17:40:18;10.48;;;5.00;;
61336;SDS011;47212;41.326;2.104;2022-08-14T17:50:46;12.65;;;4.40;;
61336;SDS011;47212;41.326;2.104;2022-08-14T17:56:05;11.77;;;4.22;;
61336;SDS011;47212;41.326;2.104;2022-08-14T18:01:07;9.35;;;4.65;;
61336;SDS011;47212;41.326;2.104;2022-08-14T18:06:27;13.63;;;3.95;;
61336;SDS011;47212;41.326;2.104;2022-08-14T18:11:53;10.65;;;4.20;;
61336;SDS011;47212;41.326;2.104;2022-08-14T18:16:58;9.63;;;4.57;;
61336;SDS011;47212;41.326;2.104;2022-08-14T18:22:07;12.75;;;4.72;;
61336;SDS011;47212;41.326;2.104;2022-08-14T18:27:31;14.43;;;4.68;;
61336;SDS011;47212;41.326;2.104;2022-08-14T18:33:12;9.73;;;4.22;;
61336;SDS011;47212;41.326;2.104;2022-08-14T18:38:33;26.27;;;6.65;;
61336;SDS011;47212;41.326;2.104;2022-08-14T18:44:00;20.33;;;5.68;;
61336;SDS011;47212;41.326;2.104;2022-08-14T18:49:12;19.65;;;5.63;;
61336;SDS011;47212;41.326;2.104;2022-08-14T18:54:27;13.35;;;5.20;;
61336;SDS011;47212;41.326;2.104;2022-08-14T19:04:45;11.85;;;4.95;;
61336;SDS011;47212;41.326;2.104;2022-08-14T19:15:20;13.75;;;5.53;;
61336;SDS011;47212;41.326;2.104;2022-08-14T19:20:47;14.90;;;5.30;;
61336;SDS011;47212;41.326;2.104;2022-08-14T19:25:56;16.67;;;5.25;;
61336;SDS011;47212;41.326;2.104;2022-08-14T19:42:16;18.20;;;5.90;;
61336;SDS011;47212;41.326;2.104;2022-08-14T19:47:31;16.85;;;4.75;;
61336;SDS011;47212;41.326;2.104;2022-08-14T19:52:41;17.58;;;5.47;;
61336;SDS011;47212;41.326;2.104;2022-08-14T19:57:51;13.02;;;5.03;;
61336;SDS011;47212;41.326;2.104;2022-08-14T20:03:04;14.73;;;5.18;;
61336;SDS011;47212;41.326;2.104;2022-08-14T20:08:13;16.48;;;5.78;;
61336;SDS011;47212;41.326;2.104;2022-08-14T20:13:38;15.38;;;5.55;;
61336;SDS011;47212;41.326;2.104;2022-08-14T20:18:41;16.27;;;5.28;;
61336;SDS011;47212;41.326;2.104;2022-08-14T20:24:14;12.07;;;5.00;;
61336;SDS011;47212;41.326;2.104;2022-08-14T20:29:31;14.50;;;4.97;;
61336;SDS011;47212;41.326;2.104;2022-08-14T20:34:43;12.45;;;4.88;;
61336;SDS011;47212;41.326;2.104;2022-08-14T20:39:52;11.97;;;4.67;;
61336;SDS011;47212;41.326;2.104;2022-08-14T20:45:00;11.63;;;5.32;;
61336;SDS011;47212;41.326;2.104;2022-08-14T20:55:34;11.60;;;4.45;;
61336;SDS011;47212;41.326;2.104;2022-08-14T21:00:45;9.25;;;4.25;;
61336;SDS011;47212;41.326;2.104;2022-08-14T21:06:00;10.35;;;4.32;;
61336;SDS011;47212;41.326;2.104;2022-08-14T21:11:22;10.95;;;4.65;;
61336;SDS011;47212;41.326;2.104;2022-08-14T21:16:31;9.87;;;4.03;;
61336;SDS011;47212;41.326;2.104;2022-08-14T21:21:37;13.07;;;4.60;;
61336;SDS011;47212;41.326;2.104;2022-08-14T21:26:43;11.98;;;4.28;;
61336;SDS011;47212;41.326;2.104;2022-08-14T21:32:00;8.75;;;3.83;;
61336;SDS011;47212;41.326;2.104;2022-08-14T21:37:23;13.88;;;5.18;;
61336;SDS011;47212;41.326;2.104;2022-08-14T21:42:34;14.60;;;4.93;;
61336;SDS011;47212;41.326;2.104;2022-08-14T21:47:42;8.75;;;4.45;;
61336;SDS011;47212;41.326;2.104;2022-08-14T21:52:45;7.50;;;4.05;;
61336;SDS011;47212;41.326;2.104;2022-08-14T21:58:02;8.98;;;3.63;;
61336;SDS011;47212;41.326;2.104;2022-08-14T22:03:28;10.25;;;3.97;;
61336;SDS011;47212;41.326;2.104;2022-08-14T22:08:37;13.10;;;4.90;;
61336;SDS011;47212;41.326;2.104;2022-08-14T22:13:53;9.00;;;4.35;;
61336;SDS011;47212;41.326;2.104;2022-08-14T22:19:13;12.57;;;4.97;;
61336;SDS011;47212;41.326;2.104;2022-08-14T22:24:28;10.23;;;4.38;;
61336;SDS011;47212;41.326;2.104;2022-08-14T22:29:39;11.32;;;4.57;;
61336;SDS011;47212;41.326;2.104;2022-08-14T22:34:44;9.45;;;4.57;;
61336;SDS011;47212;41.326;2.104;2022-08-14T22:39:49;8.18;;;4.07;;
61336;SDS011;47212;41.326;2.104;2022-08-14T22:45:11;9.65;;;4.35;;
61336;SDS011;47212;41.326;2.104;2022-08-14T22:50:25;11.23;;;4.70;;
61336;SDS011;47212;41.326;2.104;2022-08-14T22:55:36;9.90;;;4.50;;
61336;SDS011;47212;41.326;2.104;2022-08-14T23:00:42;9.20;;;4.53;;
61336;SDS011;47212;41.326;2.104;2022-08-14T23:05:46;14.57;;;4.90;;
61336;SDS011;47212;41.326;2.104;2022-08-14T23:10:58;13.27;;;4.70;;
61336;SDS011;47212;41.326;2.104;2022-08-14T23:16:15;11.70;;;4.40;;
61336;SDS011;47212;41.326;2.104;2022-08-14T23:21:21;10.50;;;4.13;;
61336;SDS011;47212;41.326;2.104;2022-08-14T23:26:25;12.20;;;5.00;;
61336;SDS011;47212;41.326;2.104;2022-08-14T23:31:53;12.57;;;4.55;;
61336;SDS011;47212;41.326;2.104;2022-08-14T23:36:59;11.27;;;5.20;;
61336;SDS011;47212;41.326;2.104;2022-08-14T23:42:12;9.05;;;4.20;;
61336;SDS011;47212;41.326;2.104;2022-08-14T23:47:18;8.27;;;4.45;;
61336;SDS011;47212;41.326;2.104;2022-08-14T23:52:28;13.77;;;4.78;;
61336;SDS011;47212;41.326;2.104;2022-08-14T23:57:57;9.52;;;4.18;;
